sensor_id;sensor_type;location;lat;lon;timestamp;temperature;humidity
71551;DHT22;59367;48.414;9.872;2023-09-19T00:00:08;19.26680756;68.50128174
71551;DHT22;59367;48.414;9.872;2023-09-19T00:01:13;19.29618073;68.24645996
71551;DHT22;59367;48.414;9.872;2023-09-19T00:02:17;19.30953217;68.309021
71551;DHT22;59367;48.414;9.872;2023-09-19T00:03:21;19.30953217;68.29986572
71551;DHT22;59367;48.414;9.872;2023-09-19T00:04:26;19.32288361;68.3013916
71551;DHT22;59367;48.414;9.872;2023-09-19T00:05:34;19.30953217;68.13049316
71551;DHT22;59367;48.414;9.872;2023-09-19T00:06:39;19.29618073;68.08624268
71551;DHT22;59367;48.414;9.872;2023-09-19T00:07:43;19.32288361;67.87109375
71551;DHT22;59367;48.414;9.872;2023-09-19T00:08:48;19.32288361;67.81005859
71551;DHT22;59367;48.414;9.872;2023-09-19T00:09:52;19.32288361;67.77954102
71551;DHT22;59367;48.414;9.872;2023-09-19T00:10:56;19.32288361;67.63153076
71551;DHT22;59367;48.414;9.872;2023-09-19T00:12:01;19.30953217;67.97943115
71551;DHT22;59367;48.414;9.872;2023-09-19T00:13:05;19.32288361;68.00231934
71551;DHT22;59367;48.414;9.872;2023-09-19T00:14:10;19.29618073;67.84667969
71551;DHT22;59367;48.414;9.872;2023-09-19T00:15:15;19.29618073;67.64526367
71551;DHT22;59367;48.414;9.872;2023-09-19T00:16:19;19.30953217;67.6864624
71551;DHT22;59367;48.414;9.872;2023-09-19T00:17:24;19.280159;67.7520752
71551;DHT22;59367;48.414;9.872;2023-09-19T00:18:28;19.30953217;67.79785156
71551;DHT22;59367;48.414;9.872;2023-09-19T00:19:33;19.30953217;67.77801514
71551;DHT22;59367;48.414;9.872;2023-09-19T00:20:39;19.29618073;67.91687012
71551;DHT22;59367;48.414;9.872;2023-09-19T00:21:44;19.29618073;68.14575195
71551;DHT22;59367;48.414;9.872;2023-09-19T00:22:48;19.280159;68.12286377
71551;DHT22;59367;48.414;9.872;2023-09-19T00:23:53;19.280159;68.23272705
71551;DHT22;59367;48.414;9.872;2023-09-19T00:24:57;19.26680756;68.23120117
71551;DHT22;59367;48.414;9.872;2023-09-19T00:26:02;19.26680756;68.23120117
71551;DHT22;59367;48.414;9.872;2023-09-19T00:27:07;19.280159;68.29528809
71551;DHT22;59367;48.414;9.872;2023-09-19T00:28:12;19.280159;68.25561523
71551;DHT22;59367;48.414;9.872;2023-09-19T00:29:16;19.26680756;68.25408936
71551;DHT22;59367;48.414;9.872;2023-09-19T00:30:20;19.25345612;68.15948486
71551;DHT22;59367;48.414;9.872;2023-09-19T00:31:25;19.22407532;68.27392578
71551;DHT22;59367;48.414;9.872;2023-09-19T00:32:29;19.23742676;68.39752197
71551;DHT22;59367;48.414;9.872;2023-09-19T00:33:34;19.22407532;68.38378906
71551;DHT22;59367;48.414;9.872;2023-09-19T00:34:38;19.19737244;68.44177246
71551;DHT22;59367;48.414;9.872;2023-09-19T00:35:49;19.21072388;68.29223633
71551;DHT22;59367;48.414;9.872;2023-09-19T00:36:54;19.21072388;68.03131104
71551;DHT22;59367;48.414;9.872;2023-09-19T00:37:59;19.16532898;67.90618896
71551;DHT22;59367;48.414;9.872;2023-09-19T00:39:03;19.1386261;67.8894043
71551;DHT22;59367;48.414;9.872;2023-09-19T00:40:10;19.1386261;67.99926758
71551;DHT22;59367;48.414;9.872;2023-09-19T00:41:14;19.1386261;67.99926758
71551;DHT22;59367;48.414;9.872;2023-09-19T00:42:22;19.12260437;68.09844971
71551;DHT22;59367;48.414;9.872;2023-09-19T00:43:26;19.09590149;68.14117432
71551;DHT22;59367;48.414;9.872;2023-09-19T00:44:31;19.09590149;68.10302734
71551;DHT22;59367;48.414;9.872;2023-09-19T00:45:38;19.06652832;68.21899414
71551;DHT22;59367;48.414;9.872;2023-09-19T00:46:43;19.02380371;68.2723999
71551;DHT22;59367;48.414;9.872;2023-09-19T00:47:49;19.03982544;68.25408936
71551;DHT22;59367;48.414;9.872;2023-09-19T00:48:54;19.01045227;68.27850342
71551;DHT22;59367;48.414;9.872;2023-09-19T00:49:59;18.99710083;68.36853027
71551;DHT22;59367;48.414;9.872;2023-09-19T00:51:04;18.99710083;68.4967041
71551;DHT22;59367;48.414;9.872;2023-09-19T00:52:09;19.01045227;68.409729
71551;DHT22;59367;48.414;9.872;2023-09-19T00:53:17;18.9810791;68.40515137
71551;DHT22;59367;48.414;9.872;2023-09-19T00:54:22;18.9810791;68.40515137
71551;DHT22;59367;48.414;9.872;2023-09-19T00:55:27;18.9810791;68.40515137
71551;DHT22;59367;48.414;9.872;2023-09-19T00:56:33;18.96772766;68.45092773
71551;DHT22;59367;48.414;9.872;2023-09-19T00:57:39;18.92500305;68.65386963
71551;DHT22;59367;48.414;9.872;2023-09-19T00:58:43;18.92500305;68.88580322
71551;DHT22;59367;48.414;9.872;2023-09-19T00:59:49;18.94102478;68.94683838
71551;DHT22;59367;48.414;9.872;2023-09-19T01:00:55;18.89830017;68.97277832
71551;DHT22;59367;48.414;9.872;2023-09-19T01:02:00;18.88494873;68.92852783
71551;DHT22;59367;48.414;9.872;2023-09-19T01:03:05;18.89830017;68.97277832
71551;DHT22;59367;48.414;9.872;2023-09-19T01:04:10;18.86892319;68.95599365
71551;DHT22;59367;48.414;9.872;2023-09-19T01:05:15;18.85557175;68.85375977
71551;DHT22;59367;48.414;9.872;2023-09-19T01:06:19;18.86892319;68.92700195
71551;DHT22;59367;48.414;9.872;2023-09-19T01:07:25;18.89830017;68.97277832
71551;DHT22;59367;48.414;9.872;2023-09-19T01:08:29;18.84222031;69.01092529
71551;DHT22;59367;48.414;9.872;2023-09-19T01:09:33;18.85557175;68.97277832
71551;DHT22;59367;48.414;9.872;2023-09-19T01:10:44;18.85557175;69.07348633
71551;DHT22;59367;48.414;9.872;2023-09-19T01:11:50;18.85557175;69.16503906
71551;DHT22;59367;48.414;9.872;2023-09-19T01:13:01;18.85557175;69.22149658
71551;DHT22;59367;48.414;9.872;2023-09-19T01:14:19;18.81284714;69.36645508
71551;DHT22;59367;48.414;9.872;2023-09-19T01:15:31;18.7994957;69.34356689
71551;DHT22;59367;48.414;9.872;2023-09-19T01:16:40;18.7994957;69.43511963
71551;DHT22;59367;48.414;9.872;2023-09-19T01:17:48;18.78614426;69.48242188
71551;DHT22;59367;48.414;9.872;2023-09-19T01:19:01;18.7994957;69.56481934
71551;DHT22;59367;48.414;9.872;2023-09-19T01:20:29;18.7994957;69.4732666
71551;DHT22;59367;48.414;9.872;2023-09-19T01:21:44;18.7994957;69.4732666
71551;DHT22;59367;48.414;9.872;2023-09-19T01:23:00;18.7994957;69.38476563
71551;DHT22;59367;48.414;9.872;2023-09-19T01:24:34;18.78614426;69.46258545
71551;DHT22;59367;48.414;9.872;2023-09-19T01:27:40;18.78614426;69.55108643
71551;DHT22;59367;48.414;9.872;2023-09-19T01:29:10;18.77012253;69.34814453
71551;DHT22;59367;48.414;9.872;2023-09-19T01:30:24;18.7994957;69.36340332
71551;DHT22;59367;48.414;9.872;2023-09-19T01:31:33;18.78614426;69.31152344
71551;DHT22;59367;48.414;9.872;2023-09-19T01:32:38;18.77012253;69.2199707
71551;DHT22;59367;48.414;9.872;2023-09-19T01:34:02;18.78614426;69.41223145
71551;DHT22;59367;48.414;9.872;2023-09-19T01:35:07;18.77012253;69.48699951
71551;DHT22;59367;48.414;9.872;2023-09-19T01:36:11;18.75677109;69.16656494
71551;DHT22;59367;48.414;9.872;2023-09-19T01:37:16;18.75677109;69.27642822
71551;DHT22;59367;48.414;9.872;2023-09-19T01:38:21;18.78614426;69.51293945
71551;DHT22;59367;48.414;9.872;2023-09-19T01:39:26;18.74341965;69.67468262
71551;DHT22;59367;48.414;9.872;2023-09-19T01:40:30;18.77012253;69.73876953
71551;DHT22;59367;48.414;9.872;2023-09-19T01:41:45;18.7994957;69.76470947
71551;DHT22;59367;48.414;9.872;2023-09-19T01:42:57;18.81284714;69.71588135
71551;DHT22;59367;48.414;9.872;2023-09-19T01:44:03;18.7994957;69.48547363
71551;DHT22;59367;48.414;9.872;2023-09-19T01:45:15;18.7994957;69.41375732
71551;DHT22;59367;48.414;9.872;2023-09-19T01:46:28;18.78614426;69.43206787
71551;DHT22;59367;48.414;9.872;2023-09-19T01:47:37;18.78614426;69.54193115
71551;DHT22;59367;48.414;9.872;2023-09-19T01:48:46;18.78614426;69.53277588
71551;DHT22;59367;48.414;9.872;2023-09-19T01:49:59;18.78614426;69.43206787
71551;DHT22;59367;48.414;9.872;2023-09-19T01:51:08;18.7994957;69.37255859
71551;DHT22;59367;48.414;9.872;2023-09-19T01:52:14;18.78614426;69.46258545
71551;DHT22;59367;48.414;9.872;2023-09-19T01:53:24;18.7994957;69.54498291
71551;DHT22;59367;48.414;9.872;2023-09-19T01:54:36;18.78614426;69.50073242
71551;DHT22;59367;48.414;9.872;2023-09-19T01:55:49;18.7994957;69.38476563
71551;DHT22;59367;48.414;9.872;2023-09-19T01:57:05;18.78614426;69.37103271
71551;DHT22;59367;48.414;9.872;2023-09-19T01:58:16;18.77012253;69.47784424
71551;DHT22;59367;48.414;9.872;2023-09-19T01:59:25;18.77012253;69.11621094
71551;DHT22;59367;48.414;9.872;2023-09-19T02:00:36;18.74341965;68.9743042
71551;DHT22;59367;48.414;9.872;2023-09-19T02:01:41;18.75677109;68.93615723
71551;DHT22;59367;48.414;9.872;2023-09-19T02:02:48;18.73006821;69.02313232
71551;DHT22;59367;48.414;9.872;2023-09-19T02:03:53;18.74341965;69.15283203
71551;DHT22;59367;48.414;9.872;2023-09-19T02:04:58;18.73006821;69.23980713
71551;DHT22;59367;48.414;9.872;2023-09-19T02:06:03;18.70069504;69.31610107
71551;DHT22;59367;48.414;9.872;2023-09-19T02:07:08;18.70069504;69.36645508
71551;DHT22;59367;48.414;9.872;2023-09-19T02:08:13;18.71404648;69.40917969
71551;DHT22;59367;48.414;9.872;2023-09-19T02:09:19;18.70069504;69.51751709
71551;DHT22;59367;48.414;9.872;2023-09-19T02:10:24;18.70069504;69.56481934
71551;DHT22;59367;48.414;9.872;2023-09-19T02:11:28;18.70069504;69.60601807
71551;DHT22;59367;48.414;9.872;2023-09-19T02:12:33;18.70069504;69.64569092
71551;DHT22;59367;48.414;9.872;2023-09-19T02:13:38;18.70069504;69.66552734
71551;DHT22;59367;48.414;9.872;2023-09-19T02:14:42;18.71404648;69.6975708
71551;DHT22;59367;48.414;9.872;2023-09-19T02:15:47;18.73006821;69.70214844
71551;DHT22;59367;48.414;9.872;2023-09-19T02:16:52;18.6873436;69.66400146
71551;DHT22;59367;48.414;9.872;2023-09-19T02:17:56;18.6873436;69.63653564
71551;DHT22;59367;48.414;9.872;2023-09-19T02:19:00;18.6873436;69.59533691
71551;DHT22;59367;48.414;9.872;2023-09-19T02:20:06;18.6873436;69.56329346
71551;DHT22;59367;48.414;9.872;2023-09-19T02:21:10;18.70069504;69.55871582
71551;DHT22;59367;48.414;9.872;2023-09-19T02:22:15;18.6873436;69.58618164
71551;DHT22;59367;48.414;9.872;2023-09-19T02:23:19;18.70069504;69.57702637
71551;DHT22;59367;48.414;9.872;2023-09-19T02:24:24;18.6873436;69.61364746
71551;DHT22;59367;48.414;9.872;2023-09-19T02:25:28;18.6873436;69.7052002
71551;DHT22;59367;48.414;9.872;2023-09-19T02:26:33;18.71404648;69.85778809
71551;DHT22;59367;48.414;9.872;2023-09-19T02:27:37;18.73006821;69.921875
71551;DHT22;59367;48.414;9.872;2023-09-19T02:28:41;18.71404648;69.99969482
71551;DHT22;59367;48.414;9.872;2023-09-19T02:29:46;18.71404648;70.03936768
71551;DHT22;59367;48.414;9.872;2023-09-19T02:30:51;18.71404648;70.08056641
71551;DHT22;59367;48.414;9.872;2023-09-19T02:31:56;18.73006821;70.06225586
71551;DHT22;59367;48.414;9.872;2023-09-19T02:33:00;18.71404648;70.13092041
71551;DHT22;59367;48.414;9.872;2023-09-19T02:34:05;18.73006821;70.14160156
71551;DHT22;59367;48.414;9.872;2023-09-19T02:35:10;18.73006821;70.12329102
71551;DHT22;59367;48.414;9.872;2023-09-19T02:36:14;18.73006821;70.10040283
71551;DHT22;59367;48.414;9.872;2023-09-19T02:37:19;18.73006821;69.99359131
71551;DHT22;59367;48.414;9.872;2023-09-19T02:38:23;18.71404648;69.90814209
71551;DHT22;59367;48.414;9.872;2023-09-19T02:39:28;18.75677109;70.01800537
71551;DHT22;59367;48.414;9.872;2023-09-19T02:40:33;18.74341965;69.95391846
71551;DHT22;59367;48.414;9.872;2023-09-19T02:41:37;18.75677109;69.86694336
71551;DHT22;59367;48.414;9.872;2023-09-19T02:42:44;18.73006821;69.82116699
71551;DHT22;59367;48.414;9.872;2023-09-19T02:43:48;18.74341965;69.8348999
71551;DHT22;59367;48.414;9.872;2023-09-19T02:44:53;18.74341965;69.8059082
71551;DHT22;59367;48.414;9.872;2023-09-19T02:45:57;18.73006821;69.88372803
71551;DHT22;59367;48.414;9.872;2023-09-19T02:47:02;18.77012253;69.94018555
71551;DHT22;59367;48.414;9.872;2023-09-19T02:48:07;18.74341965;69.97528076
71551;DHT22;59367;48.414;9.872;2023-09-19T02:49:11;18.74341965;70.04547119
71551;DHT22;59367;48.414;9.872;2023-09-19T02:50:16;18.74341965;70.05462646
71551;DHT22;59367;48.414;9.872;2023-09-19T02:51:21;18.74341965;70.03479004
71551;DHT22;59367;48.414;9.872;2023-09-19T02:52:26;18.74341965;70.03479004
71551;DHT22;59367;48.414;9.872;2023-09-19T02:53:30;18.75677109;70.01800537
71551;DHT22;59367;48.414;9.872;2023-09-19T02:54:35;18.73006821;70.03173828
71551;DHT22;59367;48.414;9.872;2023-09-19T02:55:39;18.75677109;69.98596191
71551;DHT22;59367;48.414;9.872;2023-09-19T02:56:44;18.73006821;70.12329102
71551;DHT22;59367;48.414;9.872;2023-09-19T02:57:53;18.75677109;69.98596191
71551;DHT22;59367;48.414;9.872;2023-09-19T02:58:58;18.75677109;70.05767822
71551;DHT22;59367;48.414;9.872;2023-09-19T03:00:02;18.75677109;70.07751465
71551;DHT22;59367;48.414;9.872;2023-09-19T03:01:16;18.75677109;70.1171875
71551;DHT22;59367;48.414;9.872;2023-09-19T03:02:20;18.74341965;70.13549805
71551;DHT22;59367;48.414;9.872;2023-09-19T03:03:25;18.77012253;70.21026611
71551;DHT22;59367;48.414;9.872;2023-09-19T03:04:29;18.74341965;70.19500732
71551;DHT22;59367;48.414;9.872;2023-09-19T03:05:34;18.74341965;70.27435303
71551;DHT22;59367;48.414;9.872;2023-09-19T03:06:39;18.74341965;70.21484375
71551;DHT22;59367;48.414;9.872;2023-09-19T03:07:43;18.75677109;70.20568848
71551;DHT22;59367;48.414;9.872;2023-09-19T03:08:48;18.77012253;70.23162842
71551;DHT22;59367;48.414;9.872;2023-09-19T03:09:52;18.74341965;70.30487061
71551;DHT22;59367;48.414;9.872;2023-09-19T03:10:56;18.75677109;70.33691406
71551;DHT22;59367;48.414;9.872;2023-09-19T03:12:01;18.77012253;70.21942139
71551;DHT22;59367;48.414;9.872;2023-09-19T03:13:06;18.75677109;70.07751465
71551;DHT22;59367;48.414;9.872;2023-09-19T03:14:10;18.77012253;70.11871338
71551;DHT22;59367;48.414;9.872;2023-09-19T03:15:15;18.78614426;70.04089355
71551;DHT22;59367;48.414;9.872;2023-09-19T03:16:20;18.77012253;70.10040283
71551;DHT22;59367;48.414;9.872;2023-09-19T03:17:25;18.74341965;70.01647949
71551;DHT22;59367;48.414;9.872;2023-09-19T03:18:29;18.78614426;70.04089355
71551;DHT22;59367;48.414;9.872;2023-09-19T03:19:33;18.78614426;70.07141113
71551;DHT22;59367;48.414;9.872;2023-09-19T03:20:38;18.77012253;69.9798584
71551;DHT22;59367;48.414;9.872;2023-09-19T03:21:42;18.77012253;69.94934082
71551;DHT22;59367;48.414;9.872;2023-09-19T03:22:47;18.7994957;69.91271973
71551;DHT22;59367;48.414;9.872;2023-09-19T03:23:51;18.7994957;69.95391846
71551;DHT22;59367;48.414;9.872;2023-09-19T03:24:56;18.7994957;70.04394531
71551;DHT22;59367;48.414;9.872;2023-09-19T03:26:00;18.7994957;70.01342773
71551;DHT22;59367;48.414;9.872;2023-09-19T03:27:06;18.7994957;70.01342773
71551;DHT22;59367;48.414;9.872;2023-09-19T03:28:10;18.75677109;69.91729736
71551;DHT22;59367;48.414;9.872;2023-09-19T03:29:15;18.77012253;69.78912354
71551;DHT22;59367;48.414;9.872;2023-09-19T03:30:19;18.77012253;69.84863281
71551;DHT22;59367;48.414;9.872;2023-09-19T03:31:23;18.77012253;69.73876953
71551;DHT22;59367;48.414;9.872;2023-09-19T03:32:28;18.7994957;69.69604492
71551;DHT22;59367;48.414;9.872;2023-09-19T03:33:33;18.77012253;69.62890625
71551;DHT22;59367;48.414;9.872;2023-09-19T03:34:38;18.74341965;69.48242188
71551;DHT22;59367;48.414;9.872;2023-09-19T03:35:43;18.73006821;69.43206787
71551;DHT22;59367;48.414;9.872;2023-09-19T03:36:55;18.73006821;69.37103271
71551;DHT22;59367;48.414;9.872;2023-09-19T03:38:00;18.74341965;69.23522949
71551;DHT22;59367;48.414;9.872;2023-09-19T03:39:04;18.70069504;69.15588379
71551;DHT22;59367;48.414;9.872;2023-09-19T03:40:10;18.70069504;69.19708252
71551;DHT22;59367;48.414;9.872;2023-09-19T03:41:14;18.70069504;69.3572998
71551;DHT22;59367;48.414;9.872;2023-09-19T03:42:19;18.6873436;69.27490234
71551;DHT22;59367;48.414;9.872;2023-09-19T03:43:23;18.67132187;69.20166016
71551;DHT22;59367;48.414;9.872;2023-09-19T03:44:28;18.65797043;69.22912598
71551;DHT22;59367;48.414;9.872;2023-09-19T03:45:33;18.65797043;69.00939941
71551;DHT22;59367;48.414;9.872;2023-09-19T03:46:37;18.615242;68.93157959
71551;DHT22;59367;48.414;9.872;2023-09-19T03:47:42;18.60189056;69.00939941
71551;DHT22;59367;48.414;9.872;2023-09-19T03:48:46;18.60189056;68.91937256
71551;DHT22;59367;48.414;9.872;2023-09-19T03:49:50;18.58853912;69.02770996
71551;DHT22;59367;48.414;9.872;2023-09-19T03:50:55;18.51644135;69.03381348
71551;DHT22;59367;48.414;9.872;2023-09-19T03:51:59;18.51644135;69.01397705
71551;DHT22;59367;48.414;9.872;2023-09-19T03:53:04;18.47638702;68.89953613
71551;DHT22;59367;48.414;9.872;2023-09-19T03:54:09;18.5030899;68.85375977
71551;DHT22;59367;48.414;9.872;2023-09-19T03:55:13;18.43366241;68.800354
71551;DHT22;59367;48.414;9.872;2023-09-19T03:56:18;18.40428925;68.88580322
71551;DHT22;59367;48.414;9.872;2023-09-19T03:57:22;18.40428925;68.84613037
71551;DHT22;59367;48.414;9.872;2023-09-19T03:58:26;18.35889053;68.8369751
71551;DHT22;59367;48.414;9.872;2023-09-19T03:59:31;18.34553909;68.73474121
71551;DHT22;59367;48.414;9.872;2023-09-19T04:00:35;18.33218765;68.73168945
71551;DHT22;59367;48.414;9.872;2023-09-19T04:01:40;18.30281448;68.81866455
71551;DHT22;59367;48.414;9.872;2023-09-19T04:02:44;18.2761116;68.96362305
71551;DHT22;59367;48.414;9.872;2023-09-19T04:03:49;18.24673843;69.06585693
71551;DHT22;59367;48.414;9.872;2023-09-19T04:04:53;18.24673843;69.22912598
71551;DHT22;59367;48.414;9.872;2023-09-19T04:05:58;18.24673843;69.38934326
71551;DHT22;59367;48.414;9.872;2023-09-19T04:07:02;18.20401382;69.50073242
71551;DHT22;59367;48.414;9.872;2023-09-19T04:08:07;18.19066238;69.62890625
71551;DHT22;59367;48.414;9.872;2023-09-19T04:09:11;18.17731094;69.71435547
71551;DHT22;59367;48.414;9.872;2023-09-19T04:10:16;18.1639595;69.76165771
71551;DHT22;59367;48.414;9.872;2023-09-19T04:11:21;18.14793777;69.84863281
71551;DHT22;59367;48.414;9.872;2023-09-19T04:12:25;18.1639595;69.93103027
71551;DHT22;59367;48.414;9.872;2023-09-19T04:13:30;18.14793777;70.19042969
71551;DHT22;59367;48.414;9.872;2023-09-19T04:14:34;18.14793777;70.22857666
71551;DHT22;59367;48.414;9.872;2023-09-19T04:15:39;18.14793777;70.22857666
71551;DHT22;59367;48.414;9.872;2023-09-19T04:16:43;18.1639595;70.3414917
71551;DHT22;59367;48.414;9.872;2023-09-19T04:17:47;18.14793777;70.4574585
71551;DHT22;59367;48.414;9.872;2023-09-19T04:18:52;18.14793777;70.5291748
71551;DHT22;59367;48.414;9.872;2023-09-19T04:19:56;18.1639595;70.55206299
71551;DHT22;59367;48.414;9.872;2023-09-19T04:21:00;18.1639595;70.51239014
71551;DHT22;59367;48.414;9.872;2023-09-19T04:22:05;18.19066238;70.53833008
71551;DHT22;59367;48.414;9.872;2023-09-19T04:23:09;18.14793777;70.5581665
71551;DHT22;59367;48.414;9.872;2023-09-19T04:24:14;18.14793777;70.57952881
71551;DHT22;59367;48.414;9.872;2023-09-19T04:25:18;18.14793777;70.43914795
71551;DHT22;59367;48.414;9.872;2023-09-19T04:26:23;18.14793777;70.35980225
71551;DHT22;59367;48.414;9.872;2023-09-19T04:27:27;18.14793777;70.30944824
71551;DHT22;59367;48.414;9.872;2023-09-19T04:28:31;18.14793777;70.14923096
71551;DHT22;59367;48.414;9.872;2023-09-19T04:29:36;18.14793777;69.92950439
71551;DHT22;59367;48.414;9.872;2023-09-19T04:30:40;18.17731094;69.74639893
71551;DHT22;59367;48.414;9.872;2023-09-19T04:31:45;18.1639595;69.72351074
71551;DHT22;59367;48.414;9.872;2023-09-19T04:32:49;18.12123108;69.73419189
71551;DHT22;59367;48.414;9.872;2023-09-19T04:33:54;18.13458633;69.73724365
71551;DHT22;59367;48.414;9.872;2023-09-19T04:34:58;18.14793777;69.79827881
71551;DHT22;59367;48.414;9.872;2023-09-19T04:36:03;18.10520935;69.8425293
71551;DHT22;59367;48.414;9.872;2023-09-19T04:37:07;18.10520935;69.79217529
71551;DHT22;59367;48.414;9.872;2023-09-19T04:38:12;18.10520935;69.81201172
71551;DHT22;59367;48.414;9.872;2023-09-19T04:39:16;18.09185791;69.88983154
71551;DHT22;59367;48.414;9.872;2023-09-19T04:40:20;18.10520935;70.06225586
71551;DHT22;59367;48.414;9.872;2023-09-19T04:41:25;18.09185791;70.15838623
71551;DHT22;59367;48.414;9.872;2023-09-19T04:42:29;18.07850647;70.21789551
71551;DHT22;59367;48.414;9.872;2023-09-19T04:43:34;18.10520935;70.45135498
71551;DHT22;59367;48.414;9.872;2023-09-19T04:44:38;18.06515503;70.52459717
71551;DHT22;59367;48.414;9.872;2023-09-19T04:45:42;18.0491333;70.63140869
71551;DHT22;59367;48.414;9.872;2023-09-19T04:46:47;18.07850647;70.60699463
71551;DHT22;59367;48.414;9.872;2023-09-19T04:47:51;18.09185791;70.63903809
71551;DHT22;59367;48.414;9.872;2023-09-19T04:48:56;18.07850647;70.63598633
71551;DHT22;59367;48.414;9.872;2023-09-19T04:50:00;18.07850647;70.74584961
71551;DHT22;59367;48.414;9.872;2023-09-19T04:51:05;18.07850647;70.71685791
71551;DHT22;59367;48.414;9.872;2023-09-19T04:52:09;18.07850647;70.71685791
71551;DHT22;59367;48.414;9.872;2023-09-19T04:53:13;18.07850647;70.70770264
71551;DHT22;59367;48.414;9.872;2023-09-19T04:54:18;18.07850647;70.79620361
71551;DHT22;59367;48.414;9.872;2023-09-19T04:55:22;18.09185791;70.82824707
71551;DHT22;59367;48.414;9.872;2023-09-19T04:56:27;18.12123108;70.85418701
71551;DHT22;59367;48.414;9.872;2023-09-19T04:57:31;18.12123108;70.85418701
71551;DHT22;59367;48.414;9.872;2023-09-19T04:58:35;18.12123108;70.91369629
71551;DHT22;59367;48.414;9.872;2023-09-19T04:59:40;18.12123108;70.89538574
71551;DHT22;59367;48.414;9.872;2023-09-19T05:00:44;18.13458633;70.91522217
71551;DHT22;59367;48.414;9.872;2023-09-19T05:01:49;18.14793777;70.95947266
71551;DHT22;59367;48.414;9.872;2023-09-19T05:02:54;18.1639595;71.02966309
71551;DHT22;59367;48.414;9.872;2023-09-19T05:03:59;18.1639595;71.09222412
71551;DHT22;59367;48.414;9.872;2023-09-19T05:05:03;18.17731094;71.10290527
71551;DHT22;59367;48.414;9.872;2023-09-19T05:06:08;18.19066238;70.98693848
71551;DHT22;59367;48.414;9.872;2023-09-19T05:07:12;18.17731094;70.87402344
71551;DHT22;59367;48.414;9.872;2023-09-19T05:08:17;18.17731094;70.78552246
71551;DHT22;59367;48.414;9.872;2023-09-19T05:09:21;18.19066238;70.88623047
71551;DHT22;59367;48.414;9.872;2023-09-19T05:10:26;18.22003555;70.8404541
71551;DHT22;59367;48.414;9.872;2023-09-19T05:11:30;18.22003555;70.76263428
71551;DHT22;59367;48.414;9.872;2023-09-19T05:12:35;18.23338699;70.84503174
71551;DHT22;59367;48.414;9.872;2023-09-19T05:13:40;18.2761116;70.7321167
71551;DHT22;59367;48.414;9.872;2023-09-19T05:14:44;18.24673843;70.68634033
71551;DHT22;59367;48.414;9.872;2023-09-19T05:15:48;18.2761116;70.63140869
71551;DHT22;59367;48.414;9.872;2023-09-19T05:16:53;18.30281448;70.60699463
71551;DHT22;59367;48.414;9.872;2023-09-19T05:17:57;18.30281448;70.5581665
71551;DHT22;59367;48.414;9.872;2023-09-19T05:19:02;18.31883621;70.59936523
71551;DHT22;59367;48.414;9.872;2023-09-19T05:20:07;18.35889053;70.53527832
71551;DHT22;59367;48.414;9.872;2023-09-19T05:21:11;18.34553909;70.42388916
71551;DHT22;59367;48.414;9.872;2023-09-19T05:22:16;18.35889053;70.34759521
71551;DHT22;59367;48.414;9.872;2023-09-19T05:23:20;18.35889053;70.23773193
71551;DHT22;59367;48.414;9.872;2023-09-19T05:24:25;18.39093781;70.11260986
71551;DHT22;59367;48.414;9.872;2023-09-19T05:25:30;18.42031097;70.03936768
71551;DHT22;59367;48.414;9.872;2023-09-19T05:26:35;18.40428925;69.90356445
71551;DHT22;59367;48.414;9.872;2023-09-19T05:27:39;18.43366241;69.81048584
71551;DHT22;59367;48.414;9.872;2023-09-19T05:28:44;18.44701385;69.68231201
71551;DHT22;59367;48.414;9.872;2023-09-19T05:29:48;18.44701385;69.64111328
71551;DHT22;59367;48.414;9.872;2023-09-19T05:30:53;18.4603653;69.61364746
71551;DHT22;59367;48.414;9.872;2023-09-19T05:31:57;18.42031097;69.55566406
71551;DHT22;59367;48.414;9.872;2023-09-19T05:33:02;18.43366241;69.49005127
71551;DHT22;59367;48.414;9.872;2023-09-19T05:34:07;18.44701385;69.39086914
71551;DHT22;59367;48.414;9.872;2023-09-19T05:35:12;18.48973846;69.32983398
71551;DHT22;59367;48.414;9.872;2023-09-19T05:36:16;18.44701385;69.28100586
71551;DHT22;59367;48.414;9.872;2023-09-19T05:37:21;18.4603653;69.23370361
71551;DHT22;59367;48.414;9.872;2023-09-19T05:38:26;18.48973846;69.1192627
71551;DHT22;59367;48.414;9.872;2023-09-19T05:39:30;18.48973846;69.00024414
71551;DHT22;59367;48.414;9.872;2023-09-19T05:41:39;18.5030899;68.82324219
71551;DHT22;59367;48.414;9.872;2023-09-19T05:42:44;18.47638702;68.54705811
71551;DHT22;59367;48.414;9.872;2023-09-19T05:43:50;18.4603653;68.63555908
71551;DHT22;59367;48.414;9.872;2023-09-19T05:44:55;18.44701385;68.59283447
71551;DHT22;59367;48.414;9.872;2023-09-19T05:46:02;18.4603653;68.55621338
71551;DHT22;59367;48.414;9.872;2023-09-19T05:47:07;18.44701385;68.49212646
71551;DHT22;59367;48.414;9.872;2023-09-19T05:48:14;18.44701385;68.47381592
71551;DHT22;59367;48.414;9.872;2023-09-19T05:49:18;18.42031097;68.48754883
71551;DHT22;59367;48.414;9.872;2023-09-19T05:50:23;18.43366241;68.47076416
71551;DHT22;59367;48.414;9.872;2023-09-19T05:51:28;18.40428925;68.40515137
71551;DHT22;59367;48.414;9.872;2023-09-19T05:52:33;18.40428925;68.40515137